Hildegaard — C6QU3 — position and weather

sailwx.info

Track history (hours):
 
Tides and Currents Weather Stations Pressure Air Temp Water Temp Dewpoint Dewpoint Depression Visibility Wind Speed Wind Dir Waves Ship Positions

Hildegaard

Last reported at 2014-Aug-27 12:20 UTC. Time now 2014-Aug-27 13:13 UTC.
Position N 53°45' E 000°26'.

Length 248 m; draft 11.7 m.

Type: Ship (hazmat cat C). MMSI: 308574000.

Date/timePositionNaut miles runAvg speedWind from/ knotsBaromVisibWave heightAir tempDewpointWater temp
2014-Aug-27 12:20N 53°45' E 000°26'0 0.0
2014-Aug-27 10:06N 53°45' E 000°26'0 0.0
2014-Aug-27 09:23N 53°45' E 000°26'0 0.1
2014-Aug-27 06:09N 53°45' E 000°26'0 0.0
2014-Aug-27 03:24N 53°45' E 000°26'0 0.1
2014-Aug-27 02:20N 53°45' E 000°26'0 0.2
2014-Aug-27 01:17N 53°45' E 000°26'0 0.1
2014-Aug-27 00:20N 53°45' E 000°26'0 0.0
2014-Aug-26 23:29N 53°45' E 000°26'0 0.0
2014-Aug-26 22:24N 53°45' E 000°26'0 0.0
2014-Aug-26 21:05N 53°45' E 000°26'0 0.2
2014-Aug-26 19:12N 53°45' E 000°26'0 0.0
2014-Aug-26 16:15N 53°45' E 000°26'0 0.1
2014-Aug-26 15:26N 53°45' E 000°26'0 0.1
2014-Aug-26 14:11N 53°45' E 000°26'0 0.1
2014-Aug-26 12:17N 53°45' E 000°26'0 0.0
2014-Aug-26 11:21N 53°45' E 000°26'0 0.0
2014-Aug-26 10:30N 53°45' E 000°26'0 0.0
2014-Aug-26 09:33N 53°45' E 000°26'0 0.1
2014-Aug-26 08:33N 53°45' E 000°26'0 0.1
2014-Aug-26 06:20N 53°45' E 000°26'0 0.0
2014-Aug-26 03:32N 53°45' E 000°26'0 0.2
2014-Aug-26 02:32N 53°45' E 000°26'8 7.2
2014-Aug-26 01:27N 53°51' E 000°18'8 9.2
2014-Aug-26 00:33N 53°59' E 000°12'9 9.0
2014-Aug-25 23:33N 54°07' E 000°07'8 8.3
2014-Aug-25 22:33N 54°14' W 000°02'8 8.4
2014-Aug-25 21:33N 54°21' W 000°10'9 8.6
2014-Aug-25 20:33N 54°27' W 000°20'9 9.1
2014-Aug-25 19:33N 54°35' W 000°29'10 9.6
2014-Aug-25 18:33N 54°38' W 000°45'9 9.3
2014-Aug-25 17:33N 54°41' W 001°00'0 0.3
2014-Aug-25 16:32N 54°40' W 001°01'0 0.0
2014-Aug-25 15:32N 54°40' W 001°01'0 0.0
2014-Aug-25 14:26N 54°40' W 001°01'0 0.1
2014-Aug-25 13:23N 54°41' W 001°01'0 0.0
2014-Aug-25 12:26N 54°41' W 001°01'0 0.0
2014-Aug-25 11:23N 54°41' W 001°01'0 0.0
2014-Aug-25 10:26N 54°41' W 001°01'0 0.0
2014-Aug-25 09:29N 54°41' W 001°01'0 0.0
2014-Aug-25 08:23N 54°41' W 001°01'0 0.1
2014-Aug-25 07:11N 54°41' W 001°01'0 0.1
2014-Aug-25 06:11N 54°40' W 001°01'0 0.1
2014-Aug-25 05:32N 54°40' W 001°01'0 0.0
2014-Aug-25 04:32N 54°40' W 001°00'0 0.0
2014-Aug-25 03:32N 54°40' W 001°00'0 0.0
2014-Aug-25 02:32N 54°40' W 001°00'0 0.0
2014-Aug-25 01:32N 54°40' W 001°01'0 0.0
2014-Aug-25 00:32N 54°40' W 001°01'0 0.1
2014-Aug-24 23:32N 54°40' W 001°01'0 0.1
2014-Aug-24 22:32N 54°41' W 001°01'0 0.1
2014-Aug-24 21:32N 54°41' W 001°01'0 0.0
2014-Aug-24 19:20N 54°41' W 001°01'0 0.0
2014-Aug-24 18:32N 54°41' W 001°01'0 0.0
2014-Aug-24 17:32N 54°40' W 001°01'0 0.1
2014-Aug-24 16:32N 54°40' W 001°01'0 0.1
2014-Aug-24 15:32N 54°40' W 001°00'0 0.0
2014-Aug-24 14:29N 54°40' W 001°00'0 0.0
2014-Aug-24 13:32N 54°40' W 001°01'0 0.0
2014-Aug-24 12:32N 54°40' W 001°01'0 0.0
2014-Aug-24 11:20N 54°40' W 001°01'0 0.1
2014-Aug-24 10:23N 54°40' W 001°01'0 0.0
2014-Aug-24 09:23N 54°41' W 001°01'0 0.0
2014-Aug-24 08:32N 54°41' W 001°01'0 0.0
2014-Aug-24 07:23N 54°40' W 001°01'0 0.1
2014-Aug-24 06:26N 54°40' W 001°01'0 0.0
2014-Aug-24 05:32N 54°40' W 001°01'0 0.0
2014-Aug-24 04:29N 54°40' W 001°00'0 0.0
2014-Aug-24 03:32N 54°40' W 001°00'0 0.0
2014-Aug-24 02:32N 54°40' W 001°00'0 0.0
2014-Aug-24 01:32N 54°40' W 001°00'0 0.0
2014-Aug-24 00:32N 54°40' W 001°00'0 0.0
2014-Aug-23 23:32N 54°40' W 001°00'0 0.0
2014-Aug-23 22:32N 54°40' W 001°00'0 0.1
2014-Aug-23 21:32N 54°40' W 001°01'0 0.1
2014-Aug-23 20:32N 54°41' W 001°01'0 0.0
2014-Aug-23 19:32N 54°41' W 001°01'0 0.0
2014-Aug-23 03:32N 54°40' W 001°00'0 0.0
2014-Aug-23 02:32N 54°40' W 001°00'0 0.0
2014-Aug-23 01:32N 54°40' W 001°00'0 0.0
2014-Aug-23 00:32N 54°40' W 001°00'0 0.0
2014-Aug-22 23:32N 54°40' W 001°00'0 0.1
2014-Aug-22 22:32N 54°40' W 001°01'0 0.1
2014-Aug-22 21:32N 54°40' W 001°01'0 0.0
2014-Aug-22 20:32N 54°40' W 001°01'0 0.0
2014-Aug-22 19:32N 54°41' W 001°01'0 0.0
2014-Aug-22 18:32N 54°41' W 001°01'0 0.1
2014-Aug-22 17:32N 54°40' W 001°01'0 0.0
2014-Aug-22 16:32N 54°40' W 001°01'0 0.0
2014-Aug-22 15:23N 54°40' W 001°01'0 0.0
2014-Aug-22 14:23N 54°40' W 001°00'0 0.0
2014-Aug-22 13:23N 54°40' W 001°00'0 0.0
2014-Aug-22 12:26N 54°40' W 001°01'0 0.0
2014-Aug-22 11:29N 54°40' W 001°01'0 0.0
2014-Aug-22 10:29N 54°40' W 001°01'0 0.0
2014-Aug-22 09:14N 54°40' W 001°01'0 0.0
2014-Aug-22 08:32N 54°40' W 001°01'0 0.0
2014-Aug-22 07:32N 54°40' W 001°01'0 0.0
2014-Aug-22 06:20N 54°40' W 001°01'0 0.0
2014-Aug-22 05:32N 54°40' W 001°00'0 0.0
2014-Aug-22 04:32N 54°40' W 001°00'0 0.0
2014-Aug-22 03:32N 54°40' W 001°00'0 0.0
2014-Aug-22 02:32N 54°40' W 001°00'0 0.0
2014-Aug-22 01:32N 54°40' W 001°00'0 0.0
2014-Aug-22 00:32N 54°40' W 001°00'0 0.0
2014-Aug-21 23:32N 54°40' W 001°00'0 0.1
2014-Aug-21 22:29N 54°41' W 001°00'0 0.0
2014-Aug-21 21:26N 54°41' W 001°00'0 0.1
2014-Aug-21 20:32N 54°41' W 001°00'0 0.1
2014-Aug-21 19:29N 54°41' W 001°00'0 0.1
2014-Aug-21 18:32N 54°41' W 001°00'0 0.0
2014-Aug-21 17:32N 54°41' W 001°00'0 0.0
2014-Aug-21 16:14N 54°41' W 001°00'0 0.0
2014-Aug-21 15:20N 54°41' W 001°00'0 0.0
2014-Aug-21 14:32N 54°41' W 001°00'0 0.0
2014-Aug-21 13:32N 54°41' W 001°00'0 0.0
2014-Aug-21 12:32N 54°41' W 001°00'0 0.0
2014-Aug-21 11:20N 54°41' W 001°00'0 0.0
2014-Aug-21 10:20N 54°40' W 001°00'0 0.1
2014-Aug-21 09:23N 54°40' W 001°00'0 0.1
2014-Aug-21 08:23N 54°41' W 001°01'0 0.1
2014-Aug-21 07:32N 54°41' W 001°01'0 0.0
2014-Aug-21 06:26N 54°41' W 001°01'0 0.1
2014-Aug-21 05:32N 54°40' W 001°01'0 0.1
2014-Aug-21 04:29N 54°40' W 001°01'0 0.0
2014-Aug-21 03:32N 54°40' W 001°01'0 0.0
2014-Aug-21 02:29N 54°40' W 001°01'0 0.0
2014-Aug-21 01:32N 54°40' W 001°01'0 0.0
2014-Aug-21 00:32N 54°40' W 001°01'0 0.0
2014-Aug-20 23:32N 54°40' W 001°00'0 0.1
2014-Aug-20 22:32N 54°40' W 001°01'0 0.0
2014-Aug-20 21:32N 54°40' W 001°01'0 0.0
2014-Aug-20 20:32N 54°40' W 001°01'0 0.1
2014-Aug-20 19:32N 54°40' W 001°01'0 0.0
2014-Aug-20 18:32N 54°40' W 001°01'0 0.0
2014-Aug-20 17:32N 54°40' W 001°01'0 0.0
2014-Aug-20 16:32N 54°40' W 001°01'0 0.0
2014-Aug-20 15:32N 54°40' W 001°01'0 0.0
2014-Aug-20 14:32N 54°40' W 001°01'0 0.0
2014-Aug-20 13:32N 54°40' W 001°01'0 0.0
2014-Aug-20 12:32N 54°40' W 001°01'0 0.0
2014-Aug-20 11:32N 54°40' W 001°01'0 0.0
2014-Aug-20 10:32N 54°40' W 001°01'0 0.0
2014-Aug-20 09:32N 54°40' W 001°01'0 0.0
2014-Aug-20 08:23N 54°40' W 001°01'0 0.0
2014-Aug-20 07:32N 54°40' W 001°01'0 0.0
2014-Aug-20 06:32N 54°40' W 001°01'0 0.0
2014-Aug-20 05:32N 54°40' W 001°01'0 0.0
2014-Aug-20 04:32N 54°40' W 001°01'0 0.0
2014-Aug-20 03:32N 54°40' W 001°01'0 0.0
2014-Aug-20 02:32N 54°40' W 001°01'0 0.0
2014-Aug-20 01:32N 54°40' W 001°01'0 0.0
2014-Aug-20 00:29N 54°40' W 001°01'0 0.0
2014-Aug-19 23:32N 54°40' W 001°01'0 0.0
2014-Aug-19 22:32N 54°40' W 001°01'0 0.0
2014-Aug-19 21:32N 54°40' W 001°01'0 0.0
2014-Aug-19 20:32N 54°40' W 001°01'0 0.0
2014-Aug-19 19:32N 54°40' W 001°01'0 0.0
2014-Aug-19 18:32N 54°40' W 001°01'0 0.0
2014-Aug-19 17:32N 54°40' W 001°01'0 0.0
2014-Aug-19 16:29N 54°40' W 001°01'0 0.0
2014-Aug-19 15:29N 54°40' W 001°01'0 0.0
2014-Aug-19 14:29N 54°40' W 001°01'0 0.0
2014-Aug-19 13:32N 54°40' W 001°01'0 0.0
2014-Aug-19 12:32N 54°40' W 001°01'0 0.0
2014-Aug-19 11:32N 54°40' W 001°01'0 0.0
2014-Aug-19 10:32N 54°40' W 001°01'0 0.0
2014-Aug-19 09:32N 54°40' W 001°01'0 0.0
2014-Aug-19 08:32N 54°40' W 001°01'0 0.0
2014-Aug-19 07:32N 54°40' W 001°01'0 0.0
2014-Aug-19 06:17N 54°40' W 001°01'0 0.1
2014-Aug-19 05:06N 54°40' W 001°01'0 0.2
2014-Aug-19 04:32N 54°40' W 001°01'0 0.0
2014-Aug-19 03:32N 54°40' W 001°01'0 0.0
2014-Aug-19 02:32N 54°40' W 001°01'0 0.0
2014-Aug-19 01:32N 54°40' W 001°01'0 0.0
2014-Aug-19 00:32N 54°40' W 001°01'0 0.0
2014-Aug-18 23:29N 54°40' W 001°01'0 0.0
2014-Aug-18 22:32N 54°40' W 001°01'0 0.0
2014-Aug-18 21:32N 54°40' W 001°01'0 0.0
2014-Aug-18 20:32N 54°40' W 001°01'0 0.0
2014-Aug-18 19:32N 54°40' W 001°01'0 0.0
2014-Aug-18 18:32N 54°40' W 001°01'0 0.0
2014-Aug-18 17:29N 54°40' W 001°01'0 0.0
2014-Aug-18 16:23N 54°40' W 001°01'0 0.0
2014-Aug-18 15:32N 54°40' W 001°01'0 0.0
2014-Aug-18 14:32N 54°40' W 001°01'0 0.0
2014-Aug-18 13:32N 54°40' W 001°01'0 0.0
2014-Aug-18 12:32N 54°40' W 001°01'0 0.1
2014-Aug-18 11:31N 54°41' W 001°01'  
Track history (hours):
 
Tides and Currents Weather Stations Pressure Air Temp Water Temp Dewpoint Dewpoint Depression Visibility Wind Speed Wind Dir Waves Ship Positions

Hildegaard

Last reported at 2014-Aug-27 12:20 UTC. Time now 2014-Aug-27 13:13 UTC.
Position N 53°45' E 000°26'.

Length 248 m; draft 11.7 m.

Type: Ship (hazmat cat C). MMSI: 308574000.

Date/timePositionNaut miles runAvg speedWind from/ knotsBaromVisibWave heightAir tempDewpointWater temp
2014-Aug-27 12:20N 53°45' E 000°26'0 0.0
2014-Aug-27 10:06N 53°45' E 000°26'0 0.0
2014-Aug-27 09:23N 53°45' E 000°26'0 0.1
2014-Aug-27 06:09N 53°45' E 000°26'0 0.0
2014-Aug-27 03:24N 53°45' E 000°26'0 0.1
2014-Aug-27 02:20N 53°45' E 000°26'0 0.2
2014-Aug-27 01:17N 53°45' E 000°26'0 0.1
2014-Aug-27 00:20N 53°45' E 000°26'0 0.0
2014-Aug-26 23:29N 53°45' E 000°26'0 0.0
2014-Aug-26 22:24N 53°45' E 000°26'0 0.0
2014-Aug-26 21:05N 53°45' E 000°26'0 0.2
2014-Aug-26 19:12N 53°45' E 000°26'0 0.0
2014-Aug-26 16:15N 53°45' E 000°26'0 0.1
2014-Aug-26 15:26N 53°45' E 000°26'0 0.1
2014-Aug-26 14:11N 53°45' E 000°26'0 0.1
2014-Aug-26 12:17N 53°45' E 000°26'0 0.0
2014-Aug-26 11:21N 53°45' E 000°26'0 0.0
2014-Aug-26 10:30N 53°45' E 000°26'0 0.0
2014-Aug-26 09:33N 53°45' E 000°26'0 0.1
2014-Aug-26 08:33N 53°45' E 000°26'0 0.1
2014-Aug-26 06:20N 53°45' E 000°26'0 0.0
2014-Aug-26 03:32N 53°45' E 000°26'0 0.2
2014-Aug-26 02:32N 53°45' E 000°26'8 7.2
2014-Aug-26 01:27N 53°51' E 000°18'8 9.2
2014-Aug-26 00:33N 53°59' E 000°12'9 9.0
2014-Aug-25 23:33N 54°07' E 000°07'8 8.3
2014-Aug-25 22:33N 54°14' W 000°02'8 8.4
2014-Aug-25 21:33N 54°21' W 000°10'9 8.6
2014-Aug-25 20:33N 54°27' W 000°20'9 9.1
2014-Aug-25 19:33N 54°35' W 000°29'10 9.6
2014-Aug-25 18:33N 54°38' W 000°45'9 9.3
2014-Aug-25 17:33N 54°41' W 001°00'0 0.3
2014-Aug-25 16:32N 54°40' W 001°01'0 0.0
2014-Aug-25 15:32N 54°40' W 001°01'0 0.0
2014-Aug-25 14:26N 54°40' W 001°01'0 0.1
2014-Aug-25 13:23N 54°41' W 001°01'0 0.0
2014-Aug-25 12:26N 54°41' W 001°01'0 0.0
2014-Aug-25 11:23N 54°41' W 001°01'0 0.0
2014-Aug-25 10:26N 54°41' W 001°01'0 0.0
2014-Aug-25 09:29N 54°41' W 001°01'0 0.0
2014-Aug-25 08:23N 54°41' W 001°01'0 0.1
2014-Aug-25 07:11N 54°41' W 001°01'0 0.1
2014-Aug-25 06:11N 54°40' W 001°01'0 0.1
2014-Aug-25 05:32N 54°40' W 001°01'0 0.0
2014-Aug-25 04:32N 54°40' W 001°00'0 0.0
2014-Aug-25 03:32N 54°40' W 001°00'0 0.0
2014-Aug-25 02:32N 54°40' W 001°00'0 0.0
2014-Aug-25 01:32N 54°40' W 001°01'0 0.0
2014-Aug-25 00:32N 54°40' W 001°01'0 0.1
2014-Aug-24 23:32N 54°40' W 001°01'0 0.1
2014-Aug-24 22:32N 54°41' W 001°01'0 0.1
2014-Aug-24 21:32N 54°41' W 001°01'0 0.0
2014-Aug-24 19:20N 54°41' W 001°01'0 0.0
2014-Aug-24 18:32N 54°41' W 001°01'0 0.0
2014-Aug-24 17:32N 54°40' W 001°01'0 0.1
2014-Aug-24 16:32N 54°40' W 001°01'0 0.1
2014-Aug-24 15:32N 54°40' W 001°00'0 0.0
2014-Aug-24 14:29N 54°40' W 001°00'0 0.0
2014-Aug-24 13:32N 54°40' W 001°01'0 0.0
2014-Aug-24 12:32N 54°40' W 001°01'0 0.0
2014-Aug-24 11:20N 54°40' W 001°01'0 0.1
2014-Aug-24 10:23N 54°40' W 001°01'0 0.0
2014-Aug-24 09:23N 54°41' W 001°01'0 0.0
2014-Aug-24 08:32N 54°41' W 001°01'0 0.0
2014-Aug-24 07:23N 54°40' W 001°01'0 0.1
2014-Aug-24 06:26N 54°40' W 001°01'0 0.0
2014-Aug-24 05:32N 54°40' W 001°01'0 0.0
2014-Aug-24 04:29N 54°40' W 001°00'0 0.0
2014-Aug-24 03:32N 54°40' W 001°00'0 0.0
2014-Aug-24 02:32N 54°40' W 001°00'0 0.0
2014-Aug-24 01:32N 54°40' W 001°00'0 0.0
2014-Aug-24 00:32N 54°40' W 001°00'0 0.0
2014-Aug-23 23:32N 54°40' W 001°00'0 0.0
2014-Aug-23 22:32N 54°40' W 001°00'0 0.1
2014-Aug-23 21:32N 54°40' W 001°01'0 0.1
2014-Aug-23 20:32N 54°41' W 001°01'0 0.0
2014-Aug-23 19:32N 54°41' W 001°01'0 0.0
2014-Aug-23 03:32N 54°40' W 001°00'0 0.0
2014-Aug-23 02:32N 54°40' W 001°00'0 0.0
2014-Aug-23 01:32N 54°40' W 001°00'0 0.0
2014-Aug-23 00:32N 54°40' W 001°00'0 0.0
2014-Aug-22 23:32N 54°40' W 001°00'0 0.1
2014-Aug-22 22:32N 54°40' W 001°01'0 0.1
2014-Aug-22 21:32N 54°40' W 001°01'0 0.0
2014-Aug-22 20:32N 54°40' W 001°01'0 0.0
2014-Aug-22 19:32N 54°41' W 001°01'0 0.0
2014-Aug-22 18:32N 54°41' W 001°01'0 0.1
2014-Aug-22 17:32N 54°40' W 001°01'0 0.0
2014-Aug-22 16:32N 54°40' W 001°01'0 0.0
2014-Aug-22 15:23N 54°40' W 001°01'0 0.0
2014-Aug-22 14:23N 54°40' W 001°00'0 0.0
2014-Aug-22 13:23N 54°40' W 001°00'0 0.0
2014-Aug-22 12:26N 54°40' W 001°01'0 0.0
2014-Aug-22 11:29N 54°40' W 001°01'0 0.0
2014-Aug-22 10:29N 54°40' W 001°01'0 0.0
2014-Aug-22 09:14N 54°40' W 001°01'0 0.0
2014-Aug-22 08:32N 54°40' W 001°01'0 0.0
2014-Aug-22 07:32N 54°40' W 001°01'0 0.0
2014-Aug-22 06:20N 54°40' W 001°01'0 0.0
2014-Aug-22 05:32N 54°40' W 001°00'0 0.0
2014-Aug-22 04:32N 54°40' W 001°00'0 0.0
2014-Aug-22 03:32N 54°40' W 001°00'0 0.0
2014-Aug-22 02:32N 54°40' W 001°00'0 0.0
2014-Aug-22 01:32N 54°40' W 001°00'0 0.0
2014-Aug-22 00:32N 54°40' W 001°00'0 0.0
2014-Aug-21 23:32N 54°40' W 001°00'0 0.1
2014-Aug-21 22:29N 54°41' W 001°00'0 0.0
2014-Aug-21 21:26N 54°41' W 001°00'0 0.1
2014-Aug-21 20:32N 54°41' W 001°00'0 0.1
2014-Aug-21 19:29N 54°41' W 001°00'0 0.1
2014-Aug-21 18:32N 54°41' W 001°00'0 0.0
2014-Aug-21 17:32N 54°41' W 001°00'0 0.0
2014-Aug-21 16:14N 54°41' W 001°00'0 0.0
2014-Aug-21 15:20N 54°41' W 001°00'0 0.0
2014-Aug-21 14:32N 54°41' W 001°00'0 0.0
2014-Aug-21 13:32N 54°41' W 001°00'0 0.0
2014-Aug-21 12:32N 54°41' W 001°00'0 0.0
2014-Aug-21 11:20N 54°41' W 001°00'0 0.0
2014-Aug-21 10:20N 54°40' W 001°00'0 0.1
2014-Aug-21 09:23N 54°40' W 001°00'0 0.1
2014-Aug-21 08:23N 54°41' W 001°01'0 0.1
2014-Aug-21 07:32N 54°41' W 001°01'0 0.0
2014-Aug-21 06:26N 54°41' W 001°01'0 0.1
2014-Aug-21 05:32N 54°40' W 001°01'0 0.1
2014-Aug-21 04:29N 54°40' W 001°01'0 0.0
2014-Aug-21 03:32N 54°40' W 001°01'0 0.0
2014-Aug-21 02:29N 54°40' W 001°01'0 0.0
2014-Aug-21 01:32N 54°40' W 001°01'0 0.0
2014-Aug-21 00:32N 54°40' W 001°01'0 0.0
2014-Aug-20 23:32N 54°40' W 001°00'0 0.1
2014-Aug-20 22:32N 54°40' W 001°01'0 0.0
2014-Aug-20 21:32N 54°40' W 001°01'0 0.0
2014-Aug-20 20:32N 54°40' W 001°01'0 0.1
2014-Aug-20 19:32N 54°40' W 001°01'0 0.0
2014-Aug-20 18:32N 54°40' W 001°01'0 0.0
2014-Aug-20 17:32N 54°40' W 001°01'0 0.0
2014-Aug-20 16:32N 54°40' W 001°01'0 0.0
2014-Aug-20 15:32N 54°40' W 001°01'0 0.0
2014-Aug-20 14:32N 54°40' W 001°01'0 0.0
2014-Aug-20 13:32N 54°40' W 001°01'0 0.0
2014-Aug-20 12:32N 54°40' W 001°01'0 0.0
2014-Aug-20 11:32N 54°40' W 001°01'0 0.0
2014-Aug-20 10:32N 54°40' W 001°01'0 0.0
2014-Aug-20 09:32N 54°40' W 001°01'0 0.0
2014-Aug-20 08:23N 54°40' W 001°01'0 0.0
2014-Aug-20 07:32N 54°40' W 001°01'0 0.0
2014-Aug-20 06:32N 54°40' W 001°01'0 0.0
2014-Aug-20 05:32N 54°40' W 001°01'0 0.0
2014-Aug-20 04:32N 54°40' W 001°01'0 0.0
2014-Aug-20 03:32N 54°40' W 001°01'0 0.0
2014-Aug-20 02:32N 54°40' W 001°01'0 0.0
2014-Aug-20 01:32N 54°40' W 001°01'0 0.0
2014-Aug-20 00:29N 54°40' W 001°01'0 0.0
2014-Aug-19 23:32N 54°40' W 001°01'0 0.0
2014-Aug-19 22:32N 54°40' W 001°01'0 0.0
2014-Aug-19 21:32N 54°40' W 001°01'0 0.0
2014-Aug-19 20:32N 54°40' W 001°01'0 0.0
2014-Aug-19 19:32N 54°40' W 001°01'0 0.0
2014-Aug-19 18:32N 54°40' W 001°01'0 0.0
2014-Aug-19 17:32N 54°40' W 001°01'0 0.0
2014-Aug-19 16:29N 54°40' W 001°01'0 0.0
2014-Aug-19 15:29N 54°40' W 001°01'0 0.0
2014-Aug-19 14:29N 54°40' W 001°01'0 0.0
2014-Aug-19 13:32N 54°40' W 001°01'0 0.0
2014-Aug-19 12:32N 54°40' W 001°01'0 0.0
2014-Aug-19 11:32N 54°40' W 001°01'0 0.0
2014-Aug-19 10:32N 54°40' W 001°01'0 0.0
2014-Aug-19 09:32N 54°40' W 001°01'0 0.0
2014-Aug-19 08:32N 54°40' W 001°01'0 0.0
2014-Aug-19 07:32N 54°40' W 001°01'0 0.0
2014-Aug-19 06:17N 54°40' W 001°01'0 0.1
2014-Aug-19 05:06N 54°40' W 001°01'0 0.2
2014-Aug-19 04:32N 54°40' W 001°01'0 0.0
2014-Aug-19 03:32N 54°40' W 001°01'0 0.0
2014-Aug-19 02:32N 54°40' W 001°01'0 0.0
2014-Aug-19 01:32N 54°40' W 001°01'0 0.0
2014-Aug-19 00:32N 54°40' W 001°01'0 0.0
2014-Aug-18 23:29N 54°40' W 001°01'0 0.0
2014-Aug-18 22:32N 54°40' W 001°01'0 0.0
2014-Aug-18 21:32N 54°40' W 001°01'0 0.0
2014-Aug-18 20:32N 54°40' W 001°01'0 0.0
2014-Aug-18 19:32N 54°40' W 001°01'0 0.0
2014-Aug-18 18:32N 54°40' W 001°01'0 0.0
2014-Aug-18 17:29N 54°40' W 001°01'0 0.0
2014-Aug-18 16:23N 54°40' W 001°01'0 0.0
2014-Aug-18 15:32N 54°40' W 001°01'0 0.0
2014-Aug-18 14:32N 54°40' W 001°01'0 0.0
2014-Aug-18 13:32N 54°40' W 001°01'0 0.0
2014-Aug-18 12:32N 54°40' W 001°01'0 0.1
2014-Aug-18 11:31N 54°41' W 001°01'  

Dump ship's entire track history